Time;durP1;ratioP1;P1;durP2;ratioP2;P2;SDS_P1;SDS_P2;PMS_P1;PMS_P2;Temp;Humidity;BMP_temperature;BMP_pressure;BME280_temperature;BME280_humidity;BME280_pressure;Samples;Min_cycle;Max_cycle;Signal;HPM_P1;HPM_P2
2023/04/07 00:00:31;;;;;;;0.43;0.38;;;;;;;13.84;100.00;100198.78;4989071;28;20106;-79
2023/04/07 00:03:01;;;;;;;0.63;0.45;;;;;;;13.81;100.00;100186.66;4985990;28;20046;-75
2023/04/07 00:05:29;;;;;;;0.20;0.10;;;;;;;13.79;100.00;100188.38;4983972;28;20141;-74
2023/04/07 00:07:58;;;;;;;0.68;0.30;;;;;;;13.65;100.00;100169.16;4985259;28;20054;-74
2023/04/07 00:10:28;;;;;;;1.38;0.15;;;;;;;13.77;100.00;100184.88;4983504;28;20057;-76
2023/04/07 00:12:56;;;;;;;0.40;0.30;;;;;;;13.80;100.00;100181.41;4983999;28;20054;-76
2023/04/07 00:15:25;;;;;;;0.20;0.20;;;;;;;13.79;100.00;100177.97;4983196;28;20097;-75
2023/04/07 00:17:54;;;;;;;0.10;0.10;;;;;;;13.81;100.00;100173.63;4983148;28;20591;-75
2023/04/07 00:20:22;;;;;;;0.03;0.03;;;;;;;13.80;100.00;100174.47;4983547;28;20060;-75
2023/04/07 00:22:51;;;;;;;0.45;0.20;;;;;;;13.74;100.00;100163.16;4988659;28;20054;-75
2023/04/07 00:25:20;;;;;;;0.30;0.10;;;;;;;13.79;100.00;100169.28;4983844;28;20050;-75
2023/04/07 00:27:50;;;;;;;0.43;0.13;;;;;;;13.77;100.00;100163.22;4986847;28;20046;-74
2023/04/07 00:30:18;;;;;;;1.45;0.17;;;;;;;13.78;100.00;100165.81;4986409;28;20062;-75
2023/04/07 00:32:47;;;;;;;0.75;0.20;;;;;;;13.78;100.00;100168.41;4979160;28;20105;-75
2023/04/07 00:35:15;;;;;;;0.47;0.13;;;;;;;13.77;100.00;100168.41;4981047;28;20051;-75
2023/04/07 00:37:44;;;;;;;0.28;0.13;;;;;;;13.74;100.00;100168.38;4987894;28;20038;-75
2023/04/07 00:40:13;;;;;;;1.08;0.65;;;;;;;13.71;100.00;100165.75;4980721;28;20069;-74
2023/04/07 00:42:41;;;;;;;0.25;0.20;;;;;;;13.71;100.00;100164.03;4982548;28;20057;-75
2023/04/07 00:45:12;;;;;;;0.20;0.20;;;;;;;13.70;100.00;100167.50;4980452;28;20046;-74
2023/04/07 00:47:41;;;;;;;0.30;0.20;;;;;;;13.67;100.00;100169.19;4986505;28;20054;-75
2023/04/07 00:50:10;;;;;;;1.38;0.22;;;;;;;13.67;100.00;100167.44;4985714;28;20110;-75
2023/04/07 00:52:40;;;;;;;0.25;0.20;;;;;;;13.67;100.00;100171.78;4987275;28;20050;-76
2023/04/07 00:55:09;;;;;;;0.20;0.20;;;;;;;13.66;100.00;100170.06;4982238;28;20519;-75
2023/04/07 00:57:38;;;;;;;0.32;0.20;;;;;;;13.65;100.00;100163.09;4984647;28;20046;-75
2023/04/07 01:00:08;;;;;;;0.68;0.30;;;;;;;13.66;100.00;100170.06;4993788;28;20052;-75
2023/04/07 01:02:44;;;;;;;0.38;0.30;;;;;;;13.64;100.00;100171.78;4981341;28;20093;-73
2023/04/07 01:05:18;;;;;;;0.38;0.20;;;;;;;13.63;100.00;100173.50;4988897;28;20039;-75
2023/04/07 01:07:58;;;;;;;2.15;0.50;;;;;;;13.61;100.00;100172.63;4985541;28;20100;-74
2023/04/07 01:10:35;;;;;;;0.10;0.10;;;;;;;13.56;100.00;100163.91;4984762;28;20081;-75
2023/04/07 01:13:09;;;;;;;0.70;0.30;;;;;;;13.59;100.00;100171.75;4982892;28;20050;-75
2023/04/07 01:15:40;;;;;;;0.63;0.28;;;;;;;13.57;100.00;100179.50;4978888;28;20158;-74
2023/04/07 01:18:16;;;;;;;0.20;0.17;;;;;;;13.54;100.00;100171.69;4988526;28;20488;-75
2023/04/07 01:20:46;;;;;;;0.20;0.20;;;;;;;13.56;100.00;100182.09;4987322;28;20528;-76
2023/04/07 01:23:22;;;;;;;0.25;0.22;;;;;;;13.56;100.00;100184.69;4987202;28;20053;-76
2023/04/07 01:26:09;;;;;;;0.40;0.30;;;;;;;13.54;100.00;100179.50;4986172;28;20654;-75
2023/04/07 01:28:58;;;;;;;1.08;0.20;;;;;;;13.46;100.00;100180.28;4984688;28;21160;-75
2023/04/07 01:31:30;;;;;;;0.47;0.43;;;;;;;13.49;100.00;100188.09;4984289;28;20512;-76
2023/04/07 01:34:01;;;;;;;0.33;0.20;;;;;;;13.45;100.00;100187.22;4983936;28;20082;-79
2023/04/07 01:36:30;;;;;;;0.85;0.38;;;;;;;13.41;100.00;100190.66;4989438;28;20140;-77
2023/04/07 01:39:00;;;;;;;0.10;0.10;;;;;;;13.43;100.00;100198.47;4986937;28;20595;-78
2023/04/07 01:41:30;;;;;;;1.20;0.30;;;;;;;13.40;100.00;100194.97;4992846;28;20062;-78
2023/04/07 01:44:00;;;;;;;0.47;0.40;;;;;;;13.39;100.00;100190.63;4985276;28;20047;-76
2023/04/07 01:46:30;;;;;;;1.45;0.20;;;;;;;13.35;100.00;100190.56;4991859;28;20054;-78
2023/04/07 01:48:59;;;;;;;0.80;0.38;;;;;;;13.31;100.00;100194.00;4991100;28;20046;-78
2023/04/07 01:51:29;;;;;;;0.73;0.13;;;;;;;13.27;100.00;100189.63;4981932;28;20073;-77
2023/04/07 01:53:59;;;;;;;0.22;0.15;;;;;;;13.26;100.00;100196.53;4991577;28;20056;-77
2023/04/07 01:56:28;;;;;;;1.65;0.30;;;;;;;13.24;100.00;100192.16;4996365;28;20535;-80
2023/04/07 01:58:57;;;;;;;3.97;0.22;;;;;;;13.20;100.00;100197.34;4987326;28;20093;-76
2023/04/07 02:01:26;;;;;;;1.77;0.30;;;;;;;13.18;100.00;100203.38;4984917;28;20061;-78
2023/04/07 02:04:03;;;;;;;0.35;0.13;;;;;;;13.14;100.00;100202.47;4992289;28;20058;-77
2023/04/07 02:06:35;;;;;;;0.47;0.30;;;;;;;13.09;100.00;100208.50;4974532;28;20127;-77
2023/04/07 02:09:07;;;;;;;0.28;0.22;;;;;;;13.06;100.00;100203.28;4985456;28;20122;-77
2023/04/07 02:11:38;;;;;;;0.22;0.20;;;;;;;13.05;100.00;100210.16;4989618;28;20427;-77
2023/04/07 02:14:09;;;;;;;0.10;0.10;;;;;;;13.02;100.00;100209.28;4985557;28;20043;-77
2023/04/07 02:16:38;;;;;;;0.50;0.10;;;;;;;12.99;100.00;100212.72;4995213;28;20046;-78
2023/04/07 02:19:09;;;;;;;0.47;0.17;;;;;;;12.96;100.00;100218.75;4988564;28;20057;-78
2023/04/07 02:21:40;;;;;;;0.17;0.10;;;;;;;12.94;100.00;100216.97;4999551;28;20069;-77
2023/04/07 02:24:12;;;;;;;0.13;0.13;;;;;;;12.90;100.00;100216.09;4989887;28;20054;-78
2023/04/07 02:26:40;;;;;;;1.70;0.13;;;;;;;12.88;100.00;100224.72;4987502;28;20495;-78
2023/04/07 02:29:09;;;;;;;0.47;0.20;;;;;;;12.84;100.00;100222.94;4990256;28;20145;-80
2023/04/07 02:31:37;;;;;;;1.25;0.35;;;;;;;12.83;100.00;100222.06;4990065;28;20050;-76
2023/04/07 02:34:08;;;;;;;0.40;0.30;;;;;;;12.81;100.00;100222.91;4989023;28;20046;-76
2023/04/07 02:36:36;;;;;;;2.17;0.22;;;;;;;12.78;100.00;100223.72;4988483;28;20536;-77
2023/04/07 02:39:05;;;;;;;0.65;0.40;;;;;;;12.75;100.00;100216.75;4985785;28;20055;-77
2023/04/07 02:41:34;;;;;;;0.55;0.50;;;;;;;12.74;100.00;100220.22;4991072;28;20523;-79
2023/04/07 02:44:02;;;;;;;0.55;0.40;;;;;;;12.73;100.00;100223.66;4992725;28;20046;-77
2023/04/07 02:46:31;;;;;;;0.73;0.38;;;;;;;12.73;100.00;100225.38;4981508;28;20134;-77
2023/04/07 02:48:59;;;;;;;2.28;0.65;;;;;;;12.69;100.00;100224.50;4987769;28;20479;-77
2023/04/07 02:51:30;;;;;;;1.10;0.50;;;;;;;12.63;100.00;100210.56;4988700;28;20046;-77
2023/04/07 02:53:58;;;;;;;1.02;0.35;;;;;;;12.66;100.00;100218.38;4984758;28;20170;-77
2023/04/07 02:56:27;;;;;;;0.80;0.52;;;;;;;12.64;100.00;100215.75;4987729;28;20050;-75
2023/04/07 02:58:56;;;;;;;0.68;0.50;;;;;;;12.61;100.00;100218.31;4986535;28;20042;-74
2023/04/07 03:01:24;;;;;;;1.13;0.50;;;;;;;12.60;100.00;100219.19;4985629;28;20050;-75
2023/04/07 03:03:53;;;;;;;2.00;0.50;;;;;;;12.60;100.00;100224.38;4990383;28;20054;-73
2023/04/07 03:06:21;;;;;;;0.57;0.40;;;;;;;12.58;100.00;100220.88;4986219;28;20083;-75
2023/04/07 03:08:51;;;;;;;0.80;0.43;;;;;;;12.56;100.00;100220.00;4985701;28;20046;-75
2023/04/07 03:11:20;;;;;;;0.65;0.30;;;;;;;12.54;100.00;100227.75;4982197;28;20110;-76
2023/04/07 03:13:48;;;;;;;0.85;0.50;;;;;;;12.52;100.00;100226.00;4980781;28;20051;-76
2023/04/07 03:16:17;;;;;;;0.50;0.40;;;;;;;12.46;100.00;100236.28;4986023;28;20072;-76
2023/04/07 03:18:46;;;;;;;0.75;0.60;;;;;;;12.44;100.00;100232.78;4980140;28;20050;-77
2023/04/07 03:21:14;;;;;;;0.95;0.35;;;;;;;12.44;100.00;100232.78;4987783;28;20042;-76
2023/04/07 03:23:43;;;;;;;0.70;0.40;;;;;;;12.39;100.00;100240.50;4985659;28;20057;-76
2023/04/07 03:26:15;;;;;;;2.13;0.68;;;;;;;12.38;100.00;100249.16;4982612;28;20053;-76
2023/04/07 03:28:43;;;;;;;0.97;0.60;;;;;;;12.29;100.00;100239.50;4987372;28;20046;-76
2023/04/07 03:31:12;;;;;;;1.77;0.52;;;;;;;12.30;100.00;100251.66;4979573;28;20105;-75
2023/04/07 03:33:41;;;;;;;0.85;0.55;;;;;;;12.31;100.00;100258.56;4979796;28;20042;-76
2023/04/07 03:36:10;;;;;;;0.88;0.45;;;;;;;12.25;100.00;100253.28;4979804;28;20088;-76
2023/04/07 03:38:38;;;;;;;1.17;0.55;;;;;;;12.25;100.00;100253.28;4980492;28;20066;-76
2023/04/07 03:41:07;;;;;;;1.70;0.50;;;;;;;12.25;100.00;100260.19;4987501;28;20058;-75
2023/04/07 03:43:37;;;;;;;0.60;0.47;;;;;;;12.23;100.00;100255.00;4972607;28;20058;-76
2023/04/07 03:46:06;;;;;;;0.85;0.40;;;;;;;12.25;100.00;100257.59;4981252;28;20416;-76
2023/04/07 03:48:35;;;;;;;1.38;0.50;;;;;;;12.23;100.00;100257.59;4977032;28;20747;-76
2023/04/07 03:51:04;;;;;;;1.02;0.68;;;;;;;12.23;100.00;100265.38;4980438;28;20048;-76
2023/04/07 03:53:33;;;;;;;0.85;0.40;;;;;;;12.24;100.00;100268.84;4986471;28;20089;-76
2023/04/07 03:56:02;;;;;;;0.68;0.55;;;;;;;12.24;100.00;100287.88;4983208;28;20129;-76
2023/04/07 03:58:30;;;;;;;1.55;0.38;;;;;;;12.24;100.00;100274.03;4977447;28;20066;-76
2023/04/07 04:01:00;;;;;;;1.70;0.60;;;;;;;12.24;100.00;100281.81;4981762;28;20043;-75
2023/04/07 04:03:29;;;;;;;1.63;0.52;;;;;;;12.20;100.00;100280.88;4974712;28;20555;-76
2023/04/07 04:05:57;;;;;;;0.80;0.50;;;;;;;12.15;100.00;100279.94;4982297;28;20046;-77
2023/04/07 04:08:33;;;;;;;1.88;0.52;;;;;;;12.18;100.00;100287.75;4982144;28;20412;-76
2023/04/07 04:11:02;;;;;;;0.80;0.30;;;;;;;12.18;100.00;100279.97;4975944;28;20054;-76
2023/04/07 04:13:31;;;;;;;0.95;0.50;;;;;;;12.20;100.00;100291.25;4979561;28;20068;-76
2023/04/07 04:16:01;;;;;;;0.63;0.40;;;;;;;12.21;100.00;100293.03;4978495;28;20129;-76
2023/04/07 04:18:29;;;;;;;0.90;0.60;;;;;;;12.21;100.00;100289.53;4979360;28;20579;-77
2023/04/07 04:20:58;;;;;;;1.08;0.50;;;;;;;12.20;100.00;100291.25;4986949;28;20443;-75
2023/04/07 04:23:27;;;;;;;0.55;0.50;;;;;;;12.22;100.00;100286.97;4986084;28;20872;-75
2023/04/07 04:26:02;;;;;;;0.60;0.50;;;;;;;12.23;100.00;100293.91;4985975;28;20046;-75
2023/04/07 04:28:31;;;;;;;1.15;0.68;;;;;;;12.24;100.00;100295.66;4986176;28;20488;-76
2023/04/07 04:31:01;;;;;;;0.93;0.60;;;;;;;12.27;100.00;100293.09;4985934;28;20046;-76
2023/04/07 04:33:30;;;;;;;0.95;0.55;;;;;;;12.30;100.00;100303.53;4985941;28;20133;-76
2023/04/07 04:35:58;;;;;;;0.80;0.60;;;;;;;12.28;100.00;100304.38;4987273;28;20208;-75
2023/04/07 04:38:27;;;;;;;0.95;0.52;;;;;;;12.26;100.00;100301.75;4987689;28;20057;-75
2023/04/07 04:40:55;;;;;;;0.77;0.60;;;;;;;12.27;100.00;100303.47;4990322;28;20058;-75
2023/04/07 04:43:24;;;;;;;2.05;0.75;;;;;;;12.27;100.00;100308.66;4982095;28;20046;-75
2023/04/07 04:45:52;;;;;;;0.85;0.70;;;;;;;12.24;100.00;100294.78;4979774;28;20057;-76
2023/04/07 04:48:23;;;;;;;1.63;0.70;;;;;;;12.24;100.00;100293.06;4986500;28;20056;-74
2023/04/07 04:50:51;;;;;;;1.15;0.68;;;;;;;12.29;100.00;100303.50;4983945;28;20062;-75
2023/04/07 04:53:20;;;;;;;0.30;0.30;;;;;;;12.27;100.00;100306.06;4983072;28;20050;-75
2023/04/07 04:55:50;;;;;;;0.70;0.50;;;;;;;12.27;100.00;100302.59;4981612;28;20050;-76
2023/04/07 04:58:20;;;;;;;1.30;0.70;;;;;;;12.26;100.00;100308.66;4984828;28;20735;-76
2023/04/07 05:00:48;;;;;;;0.60;0.40;;;;;;;12.22;100.00;100306.84;4984092;28;20062;-76
2023/04/07 05:03:17;;;;;;;0.43;0.28;;;;;;;12.20;100.00;100314.59;4980065;28;20059;-75
2023/04/07 05:05:48;;;;;;;0.60;0.40;;;;;;;12.17;100.00;100311.97;4989390;28;20061;-76
2023/04/07 05:08:17;;;;;;;1.37;0.43;;;;;;;12.11;100.00;100307.53;4984788;28;20069;-76
2023/04/07 05:10:45;;;;;;;2.85;0.65;;;;;;;12.13;100.00;100315.34;4987709;28;20346;-76
2023/04/07 05:13:13;;;;;;;0.50;0.30;;;;;;;12.08;100.00;100312.69;4985686;28;20066;-75
2023/04/07 05:15:42;;;;;;;0.57;0.38;;;;;;;12.09;100.00;100324.78;4985927;28;20146;-73
2023/04/07 05:18:11;;;;;;;0.35;0.35;;;;;;;12.09;100.00;100310.97;4992224;28;20038;-75
2023/04/07 05:20:39;;;;;;;0.55;0.35;;;;;;;12.10;100.00;100312.72;4990038;28;20195;-75
2023/04/07 05:23:09;;;;;;;0.63;0.60;;;;;;;11.98;100.00;100321.19;4988862;28;20043;-76
2023/04/07 05:25:38;;;;;;;1.92;0.40;;;;;;;12.01;100.00;100325.53;4980464;28;20109;-75
2023/04/07 05:28:07;;;;;;;0.40;0.38;;;;;;;12.00;100.00;100329.81;4988813;28;20132;-75
2023/04/07 05:30:35;;;;;;;3.20;0.73;;;;;;;11.99;100.00;100332.41;4990809;28;20121;-75
2023/04/07 05:33:04;;;;;;;3.88;0.57;;;;;;;11.96;100.00;100330.66;4991233;28;20050;-76
2023/04/07 05:35:32;;;;;;;1.02;0.55;;;;;;;11.95;100.00;100334.94;4993104;28;20108;-75
2023/04/07 05:38:01;;;;;;;0.55;0.38;;;;;;;11.90;100.00;100336.59;4989964;28;20116;-76
2023/04/07 05:40:31;;;;;;;0.75;0.38;;;;;;;11.90;100.00;100334.00;4984692;28;20060;-76
2023/04/07 05:43:00;;;;;;;0.40;0.38;;;;;;;11.76;100.00;100335.44;4985075;28;20101;-75
2023/04/07 05:45:28;;;;;;;0.75;0.50;;;;;;;11.76;100.00;100335.44;4984422;28;20047;-75
2023/04/07 05:47:56;;;;;;;0.60;0.30;;;;;;;11.79;100.00;100337.22;4990158;28;20086;-76
2023/04/07 05:50:25;;;;;;;2.47;0.73;;;;;;;11.80;100.00;100334.66;4989462;28;20059;-76
2023/04/07 05:52:53;;;;;;;2.67;0.65;;;;;;;11.75;100.00;100341.50;4982449;28;20046;-75
2023/04/07 05:55:22;;;;;;;0.80;0.40;;;;;;;11.75;100.00;100338.91;4982360;28;20401;-75
2023/04/07 05:57:52;;;;;;;1.33;0.60;;;;;;;11.73;100.00;100343.19;4983853;28;20082;-76
2023/04/07 06:00:21;;;;;;;1.40;0.60;;;;;;;11.63;100.00;100342.09;4986212;28;20043;-74
2023/04/07 06:02:50;;;;;;;0.60;0.47;;;;;;;11.62;100.00;100347.28;4994639;28;20531;-75
2023/04/07 06:05:19;;;;;;;1.05;0.90;;;;;;;11.60;100.00;100343.78;4984709;28;20531;-73
2023/04/07 06:07:47;;;;;;;1.05;0.40;;;;;;;11.58;100.00;100348.94;4986243;28;20051;-75
2023/04/07 06:10:16;;;;;;;0.77;0.50;;;;;;;11.59;100.00;100348.09;4987317;28;20496;-74
2023/04/07 06:12:45;;;;;;;1.85;0.60;;;;;;;11.60;100.00;100348.97;4987441;28;20056;-75
2023/04/07 06:15:15;;;;;;;0.55;0.47;;;;;;;11.59;100.00;100348.09;4988272;28;20105;-75
2023/04/07 06:17:44;;;;;;;0.65;0.38;;;;;;;11.58;100.00;100350.66;4984177;28;20073;-75
2023/04/07 06:20:13;;;;;;;0.80;0.40;;;;;;;11.60;100.00;100354.16;4987826;28;20053;-74
2023/04/07 06:22:42;;;;;;;1.33;0.45;;;;;;;11.56;100.00;100347.16;4985904;28;20553;-74
2023/04/07 06:25:11;;;;;;;1.52;0.35;;;;;;;11.63;100.00;100361.97;4990550;28;20138;-75
2023/04/07 06:27:39;;;;;;;0.75;0.52;;;;;;;11.60;100.00;100361.94;4990205;28;20183;-75
2023/04/07 06:30:09;;;;;;;2.95;0.57;;;;;;;11.61;100.00;100361.06;4990877;28;20133;-75
2023/04/07 06:32:39;;;;;;;1.20;0.68;;;;;;;11.52;100.00;100362.66;4993185;28;20130;-75
2023/04/07 06:35:08;;;;;;;1.27;0.70;;;;;;;11.57;100.00;100361.84;4989052;28;20110;-74
2023/04/07 06:37:38;;;;;;;1.50;0.47;;;;;;;11.56;100.00;100370.47;4990306;28;20054;-75
2023/04/07 06:40:07;;;;;;;0.80;0.60;;;;;;;11.52;100.00;100370.44;4987467;28;20054;-74
2023/04/07 06:42:39;;;;;;;1.30;0.70;;;;;;;11.53;100.00;100369.56;4980987;28;20052;-75
2023/04/07 06:45:09;;;;;;;0.60;0.50;;;;;;;11.55;100.00;100369.63;4985856;28;20051;-75
2023/04/07 06:47:39;;;;;;;0.73;0.50;;;;;;;11.56;100.00;100378.25;4991711;28;20074;-75
2023/04/07 06:50:08;;;;;;;1.33;0.50;;;;;;;11.56;100.00;100375.66;4985876;28;20077;-75
2023/04/07 06:52:37;;;;;;;0.77;0.60;;;;;;;11.56;100.00;100376.53;4991427;28;20042;-76
2023/04/07 06:55:06;;;;;;;0.93;0.52;;;;;;;11.56;100.00;100380.84;4984241;28;20058;-75
2023/04/07 06:57:35;;;;;;;1.70;0.80;;;;;;;11.57;100.00;100385.16;4986934;28;20058;-75
2023/04/07 07:00:06;;;;;;;1.38;0.80;;;;;;;11.57;100.00;100390.34;4984210;28;20042;-76
2023/04/07 07:02:35;;;;;;;2.15;0.68;;;;;;;11.58;100.00;100386.94;4993488;28;20046;-76
2023/04/07 07:05:07;;;;;;;1.98;0.90;;;;;;;11.58;100.00;100382.63;4979642;28;20484;-77
2023/04/07 07:07:35;;;;;;;1.60;0.90;;;;;;;11.58;100.00;100387.81;4987163;28;20054;-75
2023/04/07 07:10:04;;;;;;;1.73;0.60;;;;;;;11.59;100.00;100383.47;4987269;28;20132;-75
2023/04/07 07:12:33;;;;;;;3.28;0.82;;;;;;;11.59;100.00;100388.66;4982333;28;20445;-74
2023/04/07 07:15:02;;;;;;;4.07;0.95;;;;;;;11.59;100.00;100380.91;4990600;28;20080;-76
2023/04/07 07:17:31;;;;;;;3.33;0.73;;;;;;;11.60;100.00;100391.31;4984506;28;20046;-76
2023/04/07 07:19:59;;;;;;;1.17;0.70;;;;;;;11.60;100.00;100399.06;4982993;28;20050;-73
2023/04/07 07:22:29;;;;;;;0.85;0.85;;;;;;;11.60;100.00;100395.63;4992623;28;20056;-75
2023/04/07 07:24:58;;;;;;;1.40;0.60;;;;;;;11.59;100.00;100389.56;4988440;28;20038;-76
2023/04/07 07:27:26;;;;;;;1.55;0.93;;;;;;;11.60;100.00;100390.44;4990201;28;20050;-74
2023/04/07 07:29:55;;;;;;;0.95;0.50;;;;;;;11.56;100.00;100393.81;4987245;28;20054;-74
2023/04/07 07:32:24;;;;;;;2.58;0.70;;;;;;;11.55;100.00;100392.06;4986889;28;20109;-74
2023/04/07 07:34:53;;;;;;;1.13;0.60;;;;;;;11.55;100.00;100386.88;4986366;28;20082;-74
2023/04/07 07:37:21;;;;;;;2.60;1.13;;;;;;;11.56;100.00;100384.31;4980863;28;20054;-75
2023/04/07 07:39:52;;;;;;;1.13;0.80;;;;;;;11.56;100.00;100384.31;4984812;28;20042;-76
2023/04/07 07:42:21;;;;;;;0.77;0.70;;;;;;;11.59;100.00;100386.06;4986475;28;20049;-74
2023/04/07 07:44:49;;;;;;;1.08;0.80;;;;;;;11.60;100.00;100382.66;4976660;28;20658;-73
2023/04/07 07:47:18;;;;;;;3.20;0.60;;;;;;;11.61;100.00;100382.66;4983614;28;20050;-74
2023/04/07 07:49:47;;;;;;;0.90;0.60;;;;;;;11.63;100.00;100387.88;4985787;28;20046;-73
2023/04/07 07:52:16;;;;;;;1.23;0.90;;;;;;;11.63;100.00;100393.06;4983595;28;20042;-73
2023/04/07 07:54:44;;;;;;;0.93;0.57;;;;;;;11.65;100.00;100391.38;4989119;28;20097;-76
2023/04/07 07:57:15;;;;;;;1.10;0.70;;;;;;;11.64;100.00;100387.94;4985711;28;20050;-75
2023/04/07 07:59:44;;;;;;;1.05;0.63;;;;;;;11.64;100.00;100382.75;4982345;28;20109;-76
2023/04/07 08:02:12;;;;;;;1.25;0.70;;;;;;;11.68;100.00;100388.84;4984035;28;20054;-75
2023/04/07 08:04:41;;;;;;;1.10;0.75;;;;;;;11.67;100.00;100390.56;4982851;28;20133;-74
2023/04/07 08:07:10;;;;;;;1.65;0.77;;;;;;;11.69;100.00;100386.28;4985858;28;20496;-76
2023/04/07 08:09:39;;;;;;;1.23;0.70;;;;;;;11.71;100.00;100386.34;4985644;28;20046;-76
2023/04/07 08:12:07;;;;;;;1.35;0.75;;;;;;;11.72;100.00;100386.34;4983114;28;20047;-76
2023/04/07 08:14:38;;;;;;;2.08;1.10;;;;;;;11.72;100.00;100386.34;4987251;28;20046;-75
2023/04/07 08:17:06;;;;;;;2.00;1.10;;;;;;;11.74;100.00;100386.38;4984740;28;20059;-75
2023/04/07 08:19:35;;;;;;;1.30;0.95;;;;;;;11.73;100.00;100385.50;4983588;28;20484;-75
2023/04/07 08:22:03;;;;;;;2.45;0.95;;;;;;;11.74;100.00;100381.19;4989265;28;20050;-75
2023/04/07 08:24:35;;;;;;;3.08;1.10;;;;;;;11.77;100.00;100389.00;4990096;28;20054;-75
2023/04/07 08:27:03;;;;;;;0.95;0.80;;;;;;;11.77;100.00;100386.41;4979005;28;20059;-75
2023/04/07 08:29:32;;;;;;;2.83;1.38;;;;;;;11.78;100.00;100389.91;4984043;28;20061;-75
2023/04/07 08:32:02;;;;;;;1.30;0.68;;;;;;;11.77;100.00;100377.78;4992161;28;20480;-75
2023/04/07 08:34:31;;;;;;;2.15;0.88;;;;;;;11.79;100.00;100379.56;4983599;28;20128;-75
2023/04/07 08:37:00;;;;;;;0.95;0.60;;;;;;;11.80;100.00;100377.84;4984503;28;20823;-75
2023/04/07 08:39:28;;;;;;;1.33;0.73;;;;;;;11.81;100.00;100383.06;4987294;28;20050;-75
2023/04/07 08:41:58;;;;;;;2.63;1.08;;;;;;;11.79;100.00;100387.34;4988371;28;20046;-75
2023/04/07 08:44:28;;;;;;;1.48;0.82;;;;;;;11.78;100.00;100388.19;4983854;28;20835;-75
2023/04/07 08:47:00;;;;;;;1.80;0.90;;;;;;;11.75;100.00;100375.19;4984356;28;20128;-75
2023/04/07 08:49:33;;;;;;;1.80;1.25;;;;;;;11.79;100.00;100379.56;4982557;28;20076;-75
2023/04/07 08:52:07;;;;;;;1.13;0.75;;;;;;;11.80;100.00;100383.03;4982237;28;20497;-75
2023/04/07 08:54:36;;;;;;;2.15;1.00;;;;;;;11.82;100.00;100382.22;4981697;28;20539;-75
2023/04/07 08:57:05;;;;;;;2.03;1.20;;;;;;;11.82;100.00;100379.63;4981189;28;20503;-75
2023/04/07 08:59:35;;;;;;;3.00;1.15;;;;;;;11.77;100.00;100370.00;4981810;28;20050;-75
2023/04/07 09:02:07;;;;;;;2.38;1.00;;;;;;;11.84;100.00;100380.53;4986963;28;20108;-75
2023/04/07 09:04:40;;;;;;;0.77;0.70;;;;;;;11.83;100.00;100383.09;4982265;28;20137;-75
2023/04/07 09:07:08;;;;;;;4.18;1.15;;;;;;;11.82;100.00;100387.41;4979719;28;20280;-75
2023/04/07 09:09:37;;;;;;;1.08;0.82;;;;;;;11.81;100.00;100384.78;4985070;28;20495;-75
2023/04/07 09:12:06;;;;;;;1.92;1.13;;;;;;;11.81;100.00;100385.66;4986202;28;20057;-75
2023/04/07 09:14:34;;;;;;;1.50;1.13;;;;;;;11.81;100.00;100385.66;4978420;28;20538;-75
2023/04/07 09:17:03;;;;;;;1.33;0.88;;;;;;;11.84;100.00;100384.81;4985309;28;20512;-75
2023/04/07 09:19:32;;;;;;;1.10;0.60;;;;;;;11.85;100.00;100382.28;4989238;28;20114;-74
2023/04/07 09:22:03;;;;;;;1.15;0.60;;;;;;;11.86;100.00;100384.00;4983960;28;20572;-75
2023/04/07 09:24:32;;;;;;;2.95;0.98;;;;;;;11.86;100.00;100378.81;4984138;28;20053;-75
2023/04/07 09:27:14;;;;;;;1.23;0.82;;;;;;;11.87;100.00;100378.03;4980754;28;20073;-75
2023/04/07 09:29:45;;;;;;;1.05;0.65;;;;;;;11.83;100.00;100373.59;4983051;28;20058;-75
2023/04/07 09:32:22;;;;;;;2.58;0.68;;;;;;;11.82;100.00;100371.84;4984278;28;20137;-75
2023/04/07 09:35:00;;;;;;;1.77;0.73;;;;;;;11.77;100.00;100377.78;4984966;28;20050;-75
2023/04/07 09:37:30;;;;;;;1.00;0.60;;;;;;;11.76;100.00;100383.81;4979947;28;20047;-75
2023/04/07 09:40:00;;;;;;;2.55;0.68;;;;;;;11.75;100.00;100375.19;4983978;28;20385;-75
2023/04/07 09:42:31;;;;;;;1.35;0.80;;;;;;;11.73;100.00;100375.16;4987000;28;20054;-75
2023/04/07 09:45:00;;;;;;;0.70;0.50;;;;;;;11.70;100.00;100381.97;4985465;28;20046;-75
2023/04/07 09:47:29;;;;;;;2.78;0.82;;;;;;;11.70;100.00;100371.59;4983794;28;20069;-75
2023/04/07 09:50:05;;;;;;;1.10;0.52;;;;;;;11.69;100.00;100385.44;4983324;28;20137;-75
2023/04/07 09:52:53;;;;;;;0.80;0.60;;;;;;;11.68;100.00;100378.47;4981929;28;20042;-74
2023/04/07 09:55:23;;;;;;;3.45;0.65;;;;;;;11.67;100.00;100377.59;4986893;28;20050;-74
2023/04/07 09:57:52;;;;;;;2.78;0.98;;;;;;;11.68;100.00;100379.38;4989680;28;20435;-74
2023/04/07 10:00:20;;;;;;;1.55;0.85;;;;;;;11.69;100.00;100377.66;4991760;28;20045;-75
2023/04/07 10:02:50;;;;;;;1.83;0.65;;;;;;;11.71;100.00;100383.75;4986019;28;20046;-74
2023/04/07 10:05:19;;;;;;;0.88;0.68;;;;;;;11.72;100.00;100382.88;4985224;28;20042;-74
2023/04/07 10:07:49;;;;;;;1.25;0.60;;;;;;;11.74;100.00;100382.06;4987518;28;20050;-74
2023/04/07 10:10:19;;;;;;;2.50;0.55;;;;;;;11.75;100.00;100382.97;4989264;28;20551;-74
2023/04/07 10:12:50;;;;;;;3.03;0.82;;;;;;;11.78;100.00;100387.31;4988578;28;20046;-74
2023/04/07 10:15:19;;;;;;;0.80;0.70;;;;;;;11.75;100.00;100377.78;4989590;28;20051;-74
2023/04/07 10:17:48;;;;;;;2.70;0.90;;;;;;;11.74;100.00;100378.59;4991890;28;20050;-75
2023/04/07 10:20:19;;;;;;;0.75;0.52;;;;;;;11.66;100.00;100382.75;4983210;28;20165;-74
2023/04/07 10:22:51;;;;;;;4.18;0.73;;;;;;;11.61;100.00;100376.63;4980649;28;20064;-74
2023/04/07 10:25:25;;;;;;;0.80;0.50;;;;;;;11.57;100.00;100374.81;4987326;28;20054;-75
2023/04/07 10:27:57;;;;;;;1.25;0.70;;;;;;;11.51;100.00;100379.03;4988191;28;20086;-75
2023/04/07 10:30:28;;;;;;;2.20;0.75;;;;;;;11.48;100.00;100378.97;4979887;28;20520;-75
2023/04/07 10:32:57;;;;;;;0.90;0.60;;;;;;;11.49;100.00;100378.13;4979564;28;20411;-75
2023/04/07 10:35:27;;;;;;;0.98;0.50;;;;;;;11.49;100.00;100383.31;4990269;28;20488;-74
2023/04/07 10:38:13;;;;;;;1.88;0.70;;;;;;;11.44;100.00;100379.75;4984413;28;20062;-73
2023/04/07 10:40:46;;;;;;;1.52;0.60;;;;;;;11.35;100.00;100376.97;4987024;28;20043;-74
2023/04/07 10:43:39;;;;;;;1.02;0.50;;;;;;;11.31;100.00;100380.34;4979076;28;20409;-74
2023/04/07 10:46:08;;;;;;;2.95;1.13;;;;;;;11.26;100.00;100387.16;4985087;28;20133;-76
2023/04/07 10:48:37;;;;;;;1.20;0.57;;;;;;;11.20;100.00;100382.75;4983836;28;20047;-74
2023/04/07 10:51:23;;;;;;;0.80;0.50;;;;;;;11.19;100.00;100388.75;4981347;28;20042;-74
2023/04/07 10:54:25;;;;;;;1.13;0.43;;;;;;;11.15;100.00;100397.28;4985491;28;20046;-73
2023/04/07 10:57:23;;;;;;;0.80;0.55;;;;;;;11.11;100.00;100377.38;4990157;28;20262;-74
2023/04/07 11:00:16;;;;;;;1.02;0.40;;;;;;;11.11;100.00;100382.53;4984780;28;20752;-74
2023/04/07 11:02:45;;;;;;;2.97;0.50;;;;;;;11.05;100.00;100375.50;4987614;28;20050;-74
2023/04/07 11:05:23;;;;;;;0.70;0.50;;;;;;;11.03;100.00;100374.59;4985675;28;20433;-74
2023/04/07 11:07:57;;;;;;;0.60;0.50;;;;;;;11.01;100.00;100378.84;4984044;28;20496;-74
2023/04/07 11:10:25;;;;;;;1.73;0.57;;;;;;;11.00;100.00;100371.09;4986708;28;20056;-74
2023/04/07 11:13:05;;;;;;;0.73;0.43;;;;;;;10.90;100.00;100362.22;4988053;28;20046;-74
2023/04/07 11:15:35;;;;;;;0.90;0.70;;;;;;;10.90;100.00;100357.03;4987156;28;20073;-75
2023/04/07 11:18:18;;;;;;;3.33;0.80;;;;;;;10.95;100.00;100368.41;4982954;28;20705;-75
2023/04/07 11:20:49;;;;;;;1.27;0.60;;;;;;;10.92;100.00;100363.13;4987506;28;20053;-75
2023/04/07 11:23:18;;;;;;;1.17;0.63;;;;;;;10.92;100.00;100368.31;4986721;28;20061;-75
2023/04/07 11:25:49;;;;;;;0.80;0.45;;;;;;;10.91;100.00;100374.34;4983420;28;20109;-75
2023/04/07 11:28:20;;;;;;;1.30;0.52;;;;;;;10.86;100.00;100370.78;4987520;28;20055;-74
2023/04/07 11:30:52;;;;;;;0.95;0.50;;;;;;;10.90;100.00;100375.16;4985142;28;20812;-75